Time;durP1;ratioP1;P1;durP2;ratioP2;P2;SDS_P1;SDS_P2;PMS_P1;PMS_P2;Temp;Humidity;BMP_temperature;BMP_pressure;BME280_temperature;BME280_humidity;BME280_pressure;Samples;Min_cycle;Max_cycle;Signal;HPM_P1;HPM_P2
2022/08/21 00:01:20;;;;;;;56.83;35.90;;;;;;;18.88;37.83;100323.50;5017144;28;20045;-70
2022/08/21 00:03:45;;;;;;;48.75;35.58;;;;;;;18.70;38.29;100320.69;4999500;28;20041;-70
2022/08/21 00:06:10;;;;;;;62.63;36.55;;;;;;;18.64;38.55;100318.56;5017449;28;20045;-69
2022/08/21 00:08:35;;;;;;;61.65;36.92;;;;;;;18.62;38.54;100307.94;5017423;28;20048;-69
2022/08/21 00:11:00;;;;;;;60.33;38.05;;;;;;;18.58;38.65;100321.84;5017400;28;20052;-71
2022/08/21 00:13:25;;;;;;;61.92;37.42;;;;;;;18.50;38.66;100323.41;5017534;28;20568;-72
2022/08/21 00:15:50;;;;;;;52.22;33.05;;;;;;;18.56;38.51;100313.84;4983812;28;20399;-70
2022/08/21 00:18:16;;;;;;;57.22;39.50;;;;;;;18.56;38.69;100311.16;4999189;28;20064;-70
2022/08/21 00:20:42;;;;;;;62.70;40.30;;;;;;;18.55;38.64;100306.75;5017010;28;20056;-71
2022/08/21 00:23:08;;;;;;;59.78;38.10;;;;;;;18.44;38.98;100307.75;5017020;28;20041;-72
2022/08/21 00:25:33;;;;;;;61.67;37.03;;;;;;;18.46;38.41;100302.22;5017259;28;20041;-70
2022/08/21 00:27:58;;;;;;;61.50;41.92;;;;;;;18.40;38.70;100313.56;4999339;28;20040;-68
2022/08/21 00:30:25;;;;;;;62.28;38.97;;;;;;;18.35;38.80;100311.31;4998809;28;20052;-68
2022/08/21 00:32:51;;;;;;;64.95;39.58;;;;;;;18.41;38.86;100315.28;4999067;28;20041;-71
2022/08/21 00:35:18;;;;;;;66.75;43.10;;;;;;;18.43;38.75;100308.75;4999194;28;20060;-70
2022/08/21 00:37:44;;;;;;;62.25;39.22;;;;;;;18.46;38.56;100316.56;4998785;28;20048;-69
2022/08/21 00:40:13;;;;;;;65.28;41.03;;;;;;;18.37;39.07;100300.38;4999152;28;20044;-71
2022/08/21 00:42:38;;;;;;;72.85;44.42;;;;;;;18.32;39.33;100298.09;5016146;28;20514;-70
2022/08/21 00:45:09;;;;;;;64.28;41.42;;;;;;;18.44;38.71;100299.66;5016554;28;20053;-71
2022/08/21 00:47:34;;;;;;;63.10;43.15;;;;;;;18.43;38.51;100299.78;5012291;28;20048;-69
2022/08/21 00:49:59;;;;;;;60.38;39.92;;;;;;;18.31;38.68;100301.78;5036348;28;20055;-69
2022/08/21 00:52:28;;;;;;;68.18;44.17;;;;;;;18.40;38.52;100311.72;5036614;28;20054;-69
2022/08/21 00:54:55;;;;;;;68.78;40.22;;;;;;;18.30;38.89;100305.50;5036378;28;20044;-69
2022/08/21 00:57:26;;;;;;;74.20;42.90;;;;;;;18.30;38.99;100300.09;5036328;28;20502;-68
2022/08/21 00:59:54;;;;;;;74.97;43.30;;;;;;;18.17;39.08;100301.41;5035989;28;20051;-67
2022/08/21 01:02:20;;;;;;;65.18;41.75;;;;;;;18.17;39.20;100306.78;5017721;28;20123;-68
2022/08/21 01:04:45;;;;;;;74.15;44.30;;;;;;;18.07;39.26;100301.38;5035489;28;20047;-70
2022/08/21 01:07:10;;;;;;;66.20;42.80;;;;;;;18.00;39.59;100302.94;5002310;28;20040;-71
2022/08/21 01:09:35;;;;;;;71.55;40.17;;;;;;;17.99;39.61;100309.31;5036729;28;20052;-68
2022/08/21 01:12:00;;;;;;;61.65;41.55;;;;;;;18.00;39.76;100316.44;5017830;28;20040;-69
2022/08/21 01:14:25;;;;;;;64.10;42.10;;;;;;;17.85;39.71;100317.81;5018273;28;20047;-70
2022/08/21 01:16:52;;;;;;;60.45;41.60;;;;;;;17.76;40.08;100309.56;5035655;28;20044;-68
2022/08/21 01:19:19;;;;;;;62.35;39.92;;;;;;;17.68;40.27;100306.72;5035740;28;20048;-69
2022/08/21 01:21:44;;;;;;;63.40;42.80;;;;;;;17.69;40.37;100303.03;5035189;28;20037;-67
2022/08/21 01:24:10;;;;;;;67.68;42.83;;;;;;;17.71;40.62;100306.47;5035339;28;20045;-67
2022/08/21 01:26:36;;;;;;;64.65;41.83;;;;;;;17.74;39.99;100306.16;5017087;28;20032;-66
2022/08/21 01:29:25;;;;;;;68.60;39.78;;;;;;;17.74;40.22;100299.91;5017004;28;20037;-69
2022/08/21 01:32:09;;;;;;;55.83;29.77;;;;;;;17.80;39.69;100293.97;5016888;28;20048;-67
2022/08/21 01:34:37;;;;;;;54.65;35.05;;;;;;;17.67;39.88;100301.47;5003561;28;20040;-70
2022/08/21 01:37:02;;;;;;;59.83;37.95;;;;;;;17.63;40.72;100297.34;5021029;28;20376;-68
2022/08/21 01:39:27;;;;;;;62.40;40.47;;;;;;;17.64;40.25;100299.91;5017413;28;20048;-67
2022/08/21 01:41:52;;;;;;;60.28;40.75;;;;;;;17.66;40.32;100300.63;5017565;28;20036;-67
2022/08/21 01:44:21;;;;;;;67.63;40.08;;;;;;;17.50;40.68;100311.03;5016881;28;20056;-66
2022/08/21 01:46:46;;;;;;;61.28;38.50;;;;;;;17.33;41.22;100292.84;5027538;28;20068;-68
2022/08/21 01:49:10;;;;;;;65.75;40.55;;;;;;;17.40;41.04;100285.91;4997028;28;20044;-68
2022/08/21 01:51:35;;;;;;;62.58;34.75;;;;;;;17.51;40.40;100291.19;5014930;28;20047;-68
2022/08/21 01:54:00;;;;;;;72.25;41.75;;;;;;;17.45;40.88;100302.53;4997228;28;20403;-67
2022/08/21 01:56:26;;;;;;;73.38;39.47;;;;;;;17.49;40.70;100303.97;4997078;28;20124;-67
2022/08/21 01:58:51;;;;;;;63.75;38.60;;;;;;;17.33;41.18;100295.53;4996935;28;20489;-67
2022/08/21 02:01:16;;;;;;;57.28;36.10;;;;;;;17.33;41.04;100303.63;4996819;28;20518;-68
2022/08/21 02:03:41;;;;;;;65.18;41.45;;;;;;;17.35;40.83;100299.81;4996887;28;20072;-67
2022/08/21 02:06:07;;;;;;;58.13;35.28;;;;;;;17.26;41.08;100313.25;4996814;28;20060;-68
2022/08/21 02:08:33;;;;;;;49.10;31.45;;;;;;;17.34;40.78;100308.03;5014793;28;20052;-67
2022/08/21 02:10:58;;;;;;;59.70;37.05;;;;;;;17.38;40.45;100312.16;5014922;28;20075;-70
2022/08/21 02:13:23;;;;;;;54.65;34.15;;;;;;;17.32;41.00;100307.31;4980620;28;20049;-68
2022/08/21 02:15:48;;;;;;;55.55;35.70;;;;;;;17.25;41.12;100309.69;4996907;28;20090;-67
2022/08/21 02:18:13;;;;;;;54.00;35.05;;;;;;;17.27;41.19;100315.78;5018260;28;20089;-67
2022/08/21 02:20:41;;;;;;;58.60;33.75;;;;;;;17.31;40.81;100310.97;5018913;28;20119;-68
2022/08/21 02:23:09;;;;;;;52.97;33.00;;;;;;;17.38;40.56;100304.06;5001057;28;20044;-67
2022/08/21 02:25:34;;;;;;;55.72;33.72;;;;;;;17.30;41.06;100307.44;5000716;28;20495;-67
2022/08/21 02:28:04;;;;;;;48.10;31.13;;;;;;;17.21;40.89;100312.78;5000733;28;20158;-66
2022/08/21 02:30:31;;;;;;;57.25;34.00;;;;;;;17.28;41.16;100303.16;5000698;28;20049;-65
2022/08/21 02:32:57;;;;;;;53.10;33.95;;;;;;;17.27;40.78;100313.09;5000784;28;20045;-66
2022/08/21 02:35:22;;;;;;;52.65;29.90;;;;;;;17.33;40.73;100314.41;5018587;28;20051;-65
2022/08/21 02:37:52;;;;;;;60.47;33.30;;;;;;;17.22;41.26;100312.66;5000705;28;20044;-67
2022/08/21 02:40:20;;;;;;;48.08;32.20;;;;;;;17.27;40.96;100312.22;5000462;28;20373;-71
2022/08/21 02:42:44;;;;;;;55.10;32.63;;;;;;;17.26;40.83;100318.63;5001020;28;20049;-74
2022/08/21 02:45:11;;;;;;;53.47;32.83;;;;;;;17.29;41.27;100321.03;5019984;28;20051;-77
2022/08/21 02:47:36;;;;;;;45.15;28.75;;;;;;;17.22;41.19;100314.50;5016659;28;20064;-74
2022/08/21 02:50:02;;;;;;;43.33;23.58;;;;;;;17.38;40.73;100309.47;5038709;28;20086;-73
2022/08/21 02:52:28;;;;;;;48.22;33.28;;;;;;;17.24;40.96;100309.84;5020705;28;20048;-76
2022/08/21 02:54:52;;;;;;;51.40;31.48;;;;;;;17.29;41.30;100312.94;5038635;28;20040;-74
2022/08/21 02:57:17;;;;;;;55.33;33.00;;;;;;;17.23;41.33;100308.13;5038655;28;20423;-73
2022/08/21 02:59:42;;;;;;;49.95;31.75;;;;;;;17.32;41.40;100312.69;5020780;28;20132;-74
2022/08/21 03:02:07;;;;;;;49.08;30.20;;;;;;;17.34;40.94;100305.31;5020895;28;20049;-75
2022/08/21 03:04:31;;;;;;;54.13;32.20;;;;;;;17.43;40.67;100317.97;5020496;28;20384;-74
2022/08/21 03:06:56;;;;;;;49.75;30.50;;;;;;;17.49;40.57;100316.59;5020961;28;20047;-74
2022/08/21 03:09:21;;;;;;;47.90;27.75;;;;;;;17.46;41.22;100328.50;5020747;28;20451;-74
2022/08/21 03:11:46;;;;;;;41.47;27.40;;;;;;;17.52;40.71;100325.22;5038876;28;20040;-71
2022/08/21 03:14:11;;;;;;;50.90;28.73;;;;;;;17.61;40.62;100321.69;5037594;28;20399;-71
2022/08/21 03:16:35;;;;;;;44.72;28.60;;;;;;;17.61;40.78;100310.91;5020319;28;20380;-72
2022/08/21 03:19:00;;;;;;;45.90;29.23;;;;;;;17.70;40.38;100320.94;5020153;28;20418;-72
2022/08/21 03:21:25;;;;;;;52.35;28.50;;;;;;;17.76;40.42;100319.50;5038058;28;20047;-71
2022/08/21 03:23:50;;;;;;;49.75;28.55;;;;;;;17.90;39.96;100321.81;5037694;28;20048;-70
2022/08/21 03:26:15;;;;;;;44.83;28.27;;;;;;;17.97;39.86;100322.09;5019517;28;20445;-70
2022/08/21 03:28:39;;;;;;;40.08;26.70;;;;;;;18.00;39.90;100319.13;5037006;28;20376;-72
2022/08/21 03:31:05;;;;;;;35.15;24.35;;;;;;;17.98;39.60;100331.91;5021299;28;20503;-71
2022/08/21 03:33:30;;;;;;;44.92;26.45;;;;;;;18.03;39.21;100332.34;5042016;28;20036;-71
2022/08/21 03:36:02;;;;;;;50.58;27.15;;;;;;;18.11;39.52;100330.63;5039309;28;20040;-71
2022/08/21 03:38:28;;;;;;;46.40;29.23;;;;;;;18.15;39.26;100328.53;5005387;28;20131;-72
2022/08/21 03:40:53;;;;;;;45.67;28.00;;;;;;;18.16;39.45;100332.94;5024703;28;20048;-76
2022/08/21 03:43:18;;;;;;;41.13;26.73;;;;;;;18.06;39.66;100330.19;5043653;28;20051;-76
2022/08/21 03:45:43;;;;;;;39.42;24.48;;;;;;;18.10;39.49;100338.88;5039407;28;20135;-71
2022/08/21 03:48:09;;;;;;;38.75;26.50;;;;;;;18.20;39.27;100338.88;5020356;28;20061;-72
2022/08/21 03:50:37;;;;;;;36.97;23.92;;;;;;;18.32;38.91;100333.19;5021305;28;20608;-74
2022/08/21 03:53:02;;;;;;;42.05;25.30;;;;;;;18.33;38.94;100334.06;5037004;28;20402;-72
2022/08/21 03:55:27;;;;;;;48.85;25.08;;;;;;;18.38;38.33;100331.78;5019987;28;20387;-74
2022/08/21 03:57:53;;;;;;;42.22;26.02;;;;;;;18.35;38.76;100327.53;5019497;28;20152;-71
2022/08/21 04:00:18;;;;;;;35.47;22.15;;;;;;;18.47;38.32;100336.31;5021248;28;20072;-78
2022/08/21 04:02:43;;;;;;;40.95;25.92;;;;;;;18.40;38.81;100327.06;5005284;28;20109;-77
2022/08/21 04:05:08;;;;;;;36.10;22.83;;;;;;;18.45;38.68;100327.50;5004893;28;20045;-78
2022/08/21 04:07:33;;;;;;;45.13;23.10;;;;;;;18.53;38.21;100330.34;5004956;28;20047;-81
2022/08/21 04:09:58;;;;;;;42.17;23.67;;;;;;;18.59;38.22;100328.97;5039561;28;20049;-79
2022/08/21 04:12:23;;;;;;;38.78;23.95;;;;;;;18.68;38.07;100320.84;5004975;28;20052;-79
2022/08/21 04:14:48;;;;;;;44.08;24.00;;;;;;;18.81;37.64;100320.53;5021920;28;20569;-79
2022/08/21 04:17:13;;;;;;;47.63;23.83;;;;;;;18.86;37.82;100337.13;5039665;28;20098;-78
2022/08/21 04:19:37;;;;;;;40.10;23.08;;;;;;;18.84;37.32;100320.25;5039275;28;20479;-77
2022/08/21 04:22:02;;;;;;;33.85;22.48;;;;;;;18.82;37.40;100319.53;5039308;28;20550;-78
2022/08/21 04:24:27;;;;;;;38.70;23.35;;;;;;;18.89;36.95;100326.03;5021272;28;20040;-78
2022/08/21 04:26:52;;;;;;;35.67;22.63;;;;;;;18.97;37.25;100325.31;5004683;28;20047;-78
2022/08/21 04:29:16;;;;;;;34.15;22.90;;;;;;;19.00;37.13;100322.31;5039190;28;20040;-77
2022/08/21 04:31:43;;;;;;;39.95;24.38;;;;;;;19.08;37.22;100325.97;5020897;28;20036;-76
2022/08/21 04:34:08;;;;;;;34.70;23.20;;;;;;;19.15;37.07;100319.00;5038878;28;20518;-78
2022/08/21 04:36:33;;;;;;;37.50;23.98;;;;;;;19.15;37.15;100324.41;5021209;28;20686;-78
2022/08/21 04:38:58;;;;;;;38.83;25.48;;;;;;;19.21;36.79;100321.09;5039092;28;20498;-78
2022/08/21 04:41:23;;;;;;;42.10;24.67;;;;;;;19.24;37.08;100319.97;5039003;28;20037;-78
2022/08/21 04:43:49;;;;;;;37.35;23.33;;;;;;;19.40;36.56;100322.88;5020982;28;20063;-78
2022/08/21 04:46:15;;;;;;;41.30;22.52;;;;;;;19.59;36.27;100330.06;5001075;28;20101;-79
2022/08/21 04:48:40;;;;;;;45.25;25.27;;;;;;;19.65;35.79;100334.00;5018800;28;20049;-77
2022/08/21 04:51:08;;;;;;;43.55;25.17;;;;;;;19.78;35.88;100329.97;5000950;28;20041;-77
2022/08/21 04:53:35;;;;;;;35.13;24.02;;;;;;;19.96;35.95;100337.28;5018889;28;20091;-76
2022/08/21 04:56:09;;;;;;;39.10;26.90;;;;;;;20.14;35.41;100328.16;5000431;28;20045;-74
2022/08/21 04:58:37;;;;;;;41.40;26.80;;;;;;;20.32;34.91;100328.13;5017488;28;20076;-75
2022/08/21 05:01:04;;;;;;;40.33;26.30;;;;;;;20.54;34.73;100340.41;5016096;28;20043;-72
2022/08/21 05:03:32;;;;;;;36.03;25.25;;;;;;;20.73;33.90;100329.38;4981638;28;20388;-72
2022/08/21 05:05:57;;;;;;;45.67;27.77;;;;;;;20.80;33.63;100335.00;4997771;28;20143;-73
2022/08/21 05:08:25;;;;;;;38.20;25.50;;;;;;;20.96;34.11;100327.00;5016093;28;20504;-73
2022/08/21 05:10:50;;;;;;;38.78;27.40;;;;;;;21.32;33.73;100336.75;4997896;28;20440;-74
2022/08/21 05:13:15;;;;;;;37.28;23.50;;;;;;;21.71;33.25;100330.78;4998197;28;20521;-76
2022/08/21 05:15:41;;;;;;;44.65;28.02;;;;;;;21.83;32.38;100329.47;5000243;28;20114;-77
2022/08/21 05:18:06;;;;;;;44.50;28.80;;;;;;;21.97;32.12;100327.97;5017852;28;20498;-77
2022/08/21 05:20:34;;;;;;;43.33;28.42;;;;;;;22.22;32.11;100327.03;4983600;28;20518;-77
2022/08/21 05:22:58;;;;;;;45.55;28.35;;;;;;;22.70;31.92;100322.63;5018266;28;20051;-76
2022/08/21 05:25:24;;;;;;;44.80;28.58;;;;;;;23.19;30.24;100326.16;4999984;28;20052;-76
2022/08/21 05:27:49;;;;;;;49.03;32.08;;;;;;;23.35;29.79;100328.84;5000048;28;20080;-79
2022/08/21 05:30:14;;;;;;;46.13;30.08;;;;;;;23.35;29.82;100327.97;5017877;28;20124;-75
2022/08/21 05:32:39;;;;;;;45.60;30.55;;;;;;;23.47;29.24;100324.72;5018021;28;20047;-77
2022/08/21 05:35:05;;;;;;;48.22;32.90;;;;;;;23.41;29.26;100338.16;5030452;28;20064;-77
2022/08/21 05:37:30;;;;;;;51.70;32.13;;;;;;;23.38;29.42;100333.91;5002997;28;20033;-76
2022/08/21 05:39:55;;;;;;;46.92;30.45;;;;;;;23.43;29.38;100328.78;5017790;28;20045;-77
2022/08/21 05:42:20;;;;;;;55.38;33.10;;;;;;;23.66;29.04;100328.06;5017738;28;20032;-78
2022/08/21 05:44:45;;;;;;;44.47;29.65;;;;;;;23.93;28.47;100333.00;4983051;28;20056;-77
2022/08/21 05:47:11;;;;;;;57.50;34.03;;;;;;;24.07;28.70;100329.53;5015988;28;20057;-76
2022/08/21 05:49:36;;;;;;;44.70;32.67;;;;;;;24.34;27.67;100332.78;5016740;28;20060;-78
2022/08/21 05:52:01;;;;;;;49.30;33.63;;;;;;;24.53;27.63;100332.28;4998544;28;20119;-77
2022/08/21 05:54:27;;;;;;;44.85;31.30;;;;;;;24.87;27.01;100340.84;4998799;28;20045;-77
2022/08/21 05:56:52;;;;;;;47.15;32.00;;;;;;;25.33;26.60;100325.22;4999891;28;20045;-77
2022/08/21 05:59:16;;;;;;;52.95;32.88;;;;;;;25.76;26.07;100324.53;4999742;28;20098;-76
2022/08/21 06:01:41;;;;;;;50.40;32.72;;;;;;;25.95;26.03;100326.69;4998456;28;20106;-74
2022/08/21 06:04:07;;;;;;;50.75;33.65;;;;;;;25.77;25.71;100326.25;4998690;28;20123;-77
2022/08/21 06:06:32;;;;;;;48.42;33.17;;;;;;;25.88;25.56;100318.41;4982440;28;20036;-75
2022/08/21 06:08:57;;;;;;;47.42;33.28;;;;;;;26.19;25.54;100322.72;4998872;28;20436;-78
2022/08/21 06:11:21;;;;;;;47.10;32.08;;;;;;;26.63;24.85;100326.16;4983138;28;20436;-77
2022/08/21 06:13:46;;;;;;;48.20;32.65;;;;;;;26.57;24.45;100320.63;4983034;28;20045;-79
2022/08/21 06:16:15;;;;;;;47.05;33.92;;;;;;;27.00;24.49;100322.25;5017529;28;20072;-75
2022/08/21 06:18:41;;;;;;;51.53;32.40;;;;;;;27.47;23.81;100315.19;4999119;28;20451;-78
2022/08/21 06:21:06;;;;;;;46.97;32.92;;;;;;;27.71;23.20;100324.81;4999254;28;20091;-76
2022/08/21 06:23:35;;;;;;;47.20;33.03;;;;;;;27.89;23.09;100322.34;5018304;28;20048;-77
2022/08/21 06:26:01;;;;;;;47.00;32.22;;;;;;;28.53;22.38;100320.03;5016686;28;20041;-76
2022/08/21 06:28:26;;;;;;;45.65;31.58;;;;;;;28.88;21.71;100314.34;4998728;28;20491;-75
2022/08/21 06:30:51;;;;;;;45.25;32.22;;;;;;;29.07;21.56;100315.38;5016660;28;20518;-77
2022/08/21 06:33:16;;;;;;;47.28;31.23;;;;;;;29.76;21.62;100314.81;4982993;28;20056;-76
2022/08/21 06:35:40;;;;;;;49.22;31.58;;;;;;;30.07;20.64;100312.13;4982749;28;20033;-78
2022/08/21 06:38:05;;;;;;;46.72;31.52;;;;;;;30.16;20.50;100309.94;4998648;28;20178;-76
2022/08/21 06:40:31;;;;;;;44.47;30.45;;;;;;;30.75;20.34;100306.81;4998262;28;20495;-75
2022/08/21 06:43:05;;;;;;;46.08;32.45;;;;;;;31.37;19.51;100316.00;4981742;28;20064;-78
2022/08/21 06:45:29;;;;;;;;;;;;;;;31.39;19.44;100322.09;5016978;28;20119;-78
2022/08/21 06:47:54;;;;;;;42.88;30.13;;;;;;;30.89;19.62;100318.56;5016228;28;20045;-78
2022/08/21 06:50:19;;;;;;;44.40;31.08;;;;;;;31.15;19.79;100309.22;5037233;28;20113;-79
2022/08/21 06:52:44;;;;;;;43.63;29.40;;;;;;;31.39;18.99;100306.41;5019464;28;20036;-79
2022/08/21 06:55:10;;;;;;;44.60;29.27;;;;;;;31.44;18.64;100315.91;5037137;28;20047;-79
2022/08/21 06:57:35;;;;;;;41.47;28.20;;;;;;;31.90;18.82;100309.84;5035756;28;20093;-72
2022/08/21 07:00:00;;;;;;;45.55;30.98;;;;;;;32.51;18.53;100323.41;5000338;28;20036;-78
2022/08/21 07:02:25;;;;;;;43.08;27.77;;;;;;;32.76;17.38;100309.44;5019071;28;20048;-78
2022/08/21 07:04:50;;;;;;;43.15;29.85;;;;;;;32.76;17.59;100296.47;5039218;28;20040;-78
2022/08/21 07:07:15;;;;;;;47.50;32.28;;;;;;;32.90;17.73;100299.84;5038567;28;20422;-73
2022/08/21 07:09:40;;;;;;;46.65;31.13;;;;;;;32.93;17.38;100298.53;5020048;28;20794;-74
2022/08/21 07:12:05;;;;;;;40.17;29.00;;;;;;;32.98;17.69;100298.66;5019925;28;20040;-75
2022/08/21 07:14:30;;;;;;;44.97;28.98;;;;;;;33.37;16.59;100291.56;5036403;28;20040;-73
2022/08/21 07:16:54;;;;;;;39.30;27.65;;;;;;;33.57;16.45;100291.16;5022301;28;20075;-78
2022/08/21 07:19:19;;;;;;;51.25;31.95;;;;;;;33.14;17.01;100300.69;5040652;28;20063;-79
2022/08/21 07:21:44;;;;;;;40.13;29.23;;;;;;;33.34;17.15;100295.66;5022167;28;20048;-78
2022/08/21 07:24:09;;;;;;;43.63;30.65;;;;;;;33.74;16.99;100300.41;5040685;28;20464;-79
2022/08/21 07:26:34;;;;;;;39.05;29.55;;;;;;;33.92;16.65;100288.31;5022200;28;20080;-76
2022/08/21 07:28:59;;;;;;;42.20;30.48;;;;;;;33.95;16.61;100287.84;5020649;28;20067;-78
2022/08/21 07:31:25;;;;;;;43.58;31.67;;;;;;;33.85;16.62;100296.78;5039355;28;20088;-79
2022/08/21 07:33:50;;;;;;;48.67;30.20;;;;;;;34.02;16.37;100300.44;5038942;28;20131;-77
2022/08/21 07:36:15;;;;;;;39.08;29.05;;;;;;;34.61;16.14;100312.06;5020988;28;20079;-76
2022/08/21 07:38:40;;;;;;;42.17;31.17;;;;;;;35.05;15.54;100295.63;5021390;28;20127;-78
2022/08/21 07:41:27;;;;;;;36.92;26.58;;;;;;;35.69;15.71;100302.34;5042448;28;20075;-77
2022/08/21 07:43:52;;;;;;;38.63;27.85;;;;;;;34.94;15.10;100298.22;5021667;28;20044;-77
2022/08/21 07:46:18;;;;;;;40.63;29.13;;;;;;;33.76;15.89;100301.00;5004215;28;20106;-76
2022/08/21 07:48:43;;;;;;;39.30;27.90;;;;;;;33.11;16.44;100295.66;5039568;28;20044;-76
2022/08/21 07:51:12;;;;;;;40.38;27.70;;;;;;;32.95;16.93;100288.94;5020924;28;20101;-76
2022/08/21 07:53:37;;;;;;;35.88;26.17;;;;;;;33.33;16.75;100293.97;5039183;28;20090;-77
2022/08/21 07:56:04;;;;;;;34.08;26.25;;;;;;;33.78;15.74;100285.00;5038023;28;20411;-77
2022/08/21 07:58:29;;;;;;;37.78;26.77;;;;;;;33.98;16.33;100285.41;5020826;28;20045;-77
2022/08/21 08:00:54;;;;;;;37.83;26.08;;;;;;;34.31;15.54;100283.84;5003575;28;20151;-75
2022/08/21 08:03:18;;;;;;;39.58;25.17;;;;;;;34.62;15.05;100283.28;5020247;28;20387;-77
2022/08/21 08:05:43;;;;;;;33.08;24.95;;;;;;;34.69;15.29;100275.63;5023332;28;20041;-79
2022/08/21 08:08:08;;;;;;;40.58;26.30;;;;;;;34.87;15.29;100267.09;5039560;28;20048;-75
2022/08/21 08:10:33;;;;;;;41.13;27.27;;;;;;;34.88;14.90;100271.53;5004107;28;20051;-76
2022/08/21 08:12:58;;;;;;;37.53;25.85;;;;;;;34.93;15.04;100274.38;5003337;28;20078;-78
2022/08/21 08:15:25;;;;;;;34.00;25.35;;;;;;;34.70;15.51;100271.75;5038316;28;20129;-76
2022/08/21 08:17:50;;;;;;;39.45;25.40;;;;;;;34.30;15.66;100265.56;5003505;28;20041;-77
2022/08/21 08:20:18;;;;;;;36.97;25.80;;;;;;;34.10;15.32;100260.44;5037999;28;20048;-76
2022/08/21 08:22:42;;;;;;;35.78;24.58;;;;;;;33.58;15.57;100263.28;5020045;28;20041;-75
2022/08/21 08:25:09;;;;;;;34.03;25.58;;;;;;;32.82;16.55;100264.31;5037492;28;20043;-76
2022/08/21 08:27:36;;;;;;;36.78;24.83;;;;;;;33.02;16.45;100255.66;5037320;28;20048;-76
2022/08/21 08:30:01;;;;;;;40.22;25.73;;;;;;;33.37;16.49;100250.97;5019911;28;20062;-76
2022/08/21 08:32:27;;;;;;;36.08;24.65;;;;;;;33.27;16.04;100261.78;5019423;28;20044;-76
2022/08/21 08:34:52;;;;;;;33.72;26.25;;;;;;;33.50;15.81;100250.69;5037274;28;20074;-76
2022/08/21 08:37:18;;;;;;;35.00;25.63;;;;;;;33.92;15.80;100257.88;5019495;28;20414;-76
2022/08/21 08:39:43;;;;;;;33.45;25.27;;;;;;;34.97;15.02;100254.50;5019548;28;20510;-78
2022/08/21 08:42:19;;;;;;;38.63;24.85;;;;;;;35.48;14.53;100265.19;5019436;28;20444;-76
2022/08/21 08:44:46;;;;;;;36.45;27.52;;;;;;;35.63;14.37;100262.63;5037357;28;20102;-76
2022/08/21 08:47:15;;;;;;;36.65;24.77;;;;;;;35.72;14.14;100246.34;5019348;28;20053;-77
2022/08/21 08:49:54;;;;;;;34.47;26.42;;;;;;;35.05;14.38;100251.28;5037297;28;20040;-77
2022/08/21 08:52:28;;;;;;;36.38;25.35;;;;;;;34.34;15.07;100253.72;5018947;28;20055;-76
2022/08/21 08:55:07;;;;;;;32.58;25.50;;;;;;;34.01;15.68;100251.72;5036988;28;20443;-77
2022/08/21 08:57:33;;;;;;;38.90;25.38;;;;;;;32.95;15.67;100264.09;5018748;28;20048;-77
2022/08/21 09:00:04;;;;;;;41.17;28.67;;;;;;;31.81;16.92;100253.34;5036658;28;20040;-77
2022/08/21 09:02:28;;;;;;;34.97;25.50;;;;;;;30.73;18.03;100258.53;5018195;28;20044;-76
2022/08/21 09:04:54;;;;;;;37.13;26.08;;;;;;;29.96;18.81;100247.69;5036670;28;20051;-76
2022/08/21 09:07:27;;;;;;;39.13;25.40;;;;;;;29.46;19.53;100248.56;5036774;28;20048;-75
2022/08/21 09:10:10;;;;;;;35.47;25.70;;;;;;;29.52;19.58;100251.28;5018905;28;20083;-77
2022/08/21 09:12:57;;;;;;;37.95;24.10;;;;;;;29.17;19.60;100244.38;5019170;28;20082;-75
2022/08/21 09:15:50;;;;;;;40.60;23.55;;;;;;;29.09;19.81;100250.13;5018813;28;20059;-75
2022/08/21 09:18:44;;;;;;;31.63;23.77;;;;;;;28.85;19.76;100249.75;5036178;28;20460;-76
2022/08/21 09:21:25;;;;;;;33.28;20.52;;;;;;;28.84;19.73;100233.50;4958322;28;20048;-78
2022/08/21 09:23:59;;;;;;;32.97;21.10;;;;;;;29.41;19.66;100240.97;4974701;28;20193;-76
2022/08/21 09:26:40;;;;;;;36.33;21.02;;;;;;;30.13;18.61;100241.66;4974635;28;20436;-77
2022/08/21 09:29:10;;;;;;;30.30;19.73;;;;;;;30.71;17.92;100249.66;4975230;28;20403;-77
2022/08/21 09:31:39;;;;;;;31.73;19.55;;;;;;;30.98;17.67;100245.59;4975448;28;20180;-76
2022/08/21 09:34:09;;;;;;;28.83;14.75;;;;;;;31.36;17.30;100250.94;4976563;28;20542;-76
2022/08/21 09:36:42;;;;;;;34.38;20.02;;;;;;;30.62;17.42;100249.97;4977563;28;20041;-75
2022/08/21 09:39:09;;;;;;;27.03;18.30;;;;;;;30.27;18.04;100241.31;4978996;28;20064;-76
2022/08/21 09:41:35;;;;;;;28.75;19.65;;;;;;;29.58;18.26;100236.66;4962777;28;20060;-76
2022/08/21 09:44:00;;;;;;;32.13;18.95;;;;;;;28.84;19.54;100236.22;4981277;28;20045;-75
2022/08/21 09:46:27;;;;;;;30.55;19.45;;;;;;;28.55;20.43;100237.50;4987900;28;20058;-75
2022/08/21 09:48:56;;;;;;;26.27;17.35;;;;;;;28.53;19.60;100243.22;4977093;28;20096;-77
2022/08/21 09:51:24;;;;;;;30.10;18.70;;;;;;;28.13;20.44;100235.97;4965103;28;20496;-77
2022/08/21 09:53:53;;;;;;;39.00;19.42;;;;;;;28.03;20.37;100247.34;4963369;28;20432;-78
2022/08/21 09:59:25;;;;;;;22.75;16.10;;;;;;;27.65;20.57;100232.50;5039185;28;20590;-72
2022/08/21 10:01:51;;;;;;;24.70;15.60;;;;;;;27.26;21.05;100235.88;5021095;28;20036;-72
2022/08/21 10:04:45;;;;;;;23.60;14.20;;;;;;;27.05;21.71;100234.09;5036698;28;20040;-72
2022/08/21 10:07:14;;;;;;;21.97;15.00;;;;;;;26.98;21.58;100234.03;5037713;28;20139;-75
2022/08/21 10:09:42;;;;;;;26.25;14.40;;;;;;;26.87;21.66;100240.03;5039327;28;20086;-72
2022/08/21 10:12:20;;;;;;;24.08;13.73;;;;;;;26.95;21.66;100239.94;5043828;28;20383;-74
2022/08/21 10:15:12;;;;;;;22.98;13.82;;;;;;;26.79;22.01;100233.88;5009544;28;20032;-70
2022/08/21 10:18:00;;;;;;;19.90;11.90;;;;;;;26.73;21.97;100227.34;5026147;28;20078;-72
2022/08/21 10:20:31;;;;;;;22.30;13.05;;;;;;;26.71;22.51;100223.97;5038863;28;20048;-71
2022/08/21 10:23:18;;;;;;;19.05;11.40;;;;;;;26.83;22.08;100226.97;5018353;28;20048;-71
2022/08/21 10:26:27;;;;;;;21.50;10.02;;;;;;;26.85;21.66;100222.16;5035956;28;20049;-72
2022/08/21 10:29:15;;;;;;;18.40;9.93;;;;;;;26.63;21.56;100219.50;5036233;28;20438;-72
2022/08/21 10:31:48;;;;;;;21.58;8.55;;;;;;;26.46;21.42;100215.34;5035507;28;20172;-71
2022/08/21 10:34:16;;;;;;;14.57;8.50;;;;;;;26.30;21.55;100219.22;5034598;28;20033;-72
2022/08/21 10:37:11;;;;;;;16.25;8.38;;;;;;;26.26;21.68;100226.09;5016771;28;20048;-73
2022/08/21 10:40:10;;;;;;;22.02;8.45;;;;;;;26.28;21.92;100215.84;5038608;28;20040;-72
2022/08/21 10:42:46;;;;;;;17.75;8.63;;;;;;;26.23;21.75;100211.97;5029800;28;20053;-71
2022/08/21 10:45:29;;;;;;;14.48;7.70;;;;;;;26.16;22.04;100217.41;5035472;28;20072;-72
2022/08/21 10:48:00;;;;;;;17.40;8.00;;;;;;;26.00;22.37;100207.56;5021510;28;20064;-72
2022/08/21 10:50:43;;;;;;;16.23;7.25;;;;;;;26.02;22.14;100190.97;5018163;28;20036;-73
2022/08/21 10:53:15;;;;;;;14.00;7.65;;;;;;;26.03;22.42;100196.25;5000540;28;20593;-73
2022/08/21 10:56:23;;;;;;;16.73;9.85;;;;;;;26.00;22.76;100188.44;5018474;28;20076;-71
2022/08/21 10:59:39;;;;;;;11.93;8.13;;;;;;;25.84;23.30;100196.06;4940214;28;20056;-70
2022/08/21 11:02:16;;;;;;;15.32;8.02;;;;;;;25.82;22.88;100192.69;4855956;29;20464;-73
2022/08/21 11:05:10;;;;;;;16.75;6.53;;;;;;;25.86;22.60;100191.22;4861954;29;20119;-71
2022/08/21 11:08:02;;;;;;;9.52;6.10;;;;;;;25.90;22.53;100190.66;4861954;29;20567;-71
2022/08/21 11:10:33;;;;;;;11.60;5.95;;;;;;;25.87;22.16;100190.19;4858126;29;20068;-72
2022/08/21 11:13:08;;;;;;;12.02;6.07;;;;;;;25.74;22.68;100184.59;4861789;29;20436;-71
2022/08/21 11:15:47;;;;;;;16.88;6.63;;;;;;;25.75;22.68;100191.75;4861883;29;20056;-71
2022/08/21 11:18:18;;;;;;;9.55;6.35;;;;;;;25.79;22.80;100198.53;4830430;29;20056;-72